createdAt,value
2023-02-04T00:00:55.604Z,6.60
2023-02-04T00:03:24.892Z,6.63
2023-02-04T00:05:54.079Z,7.20
2023-02-04T00:08:23.390Z,7.25
2023-02-04T00:10:54.641Z,8.20
2023-02-04T00:13:23.846Z,7.30
2023-02-04T00:15:52.965Z,7.72
2023-02-04T00:18:22.321Z,7.43
2023-02-04T00:20:51.448Z,8.10
2023-02-04T00:23:20.532Z,6.93
2023-02-04T00:25:49.940Z,6.85
2023-02-04T00:28:21.491Z,7.13
2023-02-04T00:30:55.699Z,7.47
2023-02-04T00:33:25.017Z,7.18
2023-02-04T00:35:54.062Z,6.25
2023-02-04T00:38:23.504Z,6.53
2023-02-04T00:40:52.922Z,6.85
2023-02-04T00:43:29.172Z,6.30
2023-02-04T00:46:03.668Z,5.72
2023-02-04T00:48:34.289Z,5.97
2023-02-04T00:51:06.822Z,6.30
2023-02-04T00:56:04.880Z,4.88
2023-02-04T00:58:35.990Z,5.57
2023-02-04T01:01:05.796Z,5.60
2023-02-04T01:03:34.945Z,5.63
2023-02-04T01:06:04.265Z,5.88
2023-02-04T01:08:38.341Z,6.15
2023-02-04T01:11:07.853Z,6.07
2023-02-04T01:13:38.967Z,6.10
2023-02-04T01:16:08.403Z,5.88
2023-02-04T01:18:37.815Z,6.72
2023-02-04T01:21:07.486Z,6.65
2023-02-04T01:23:37.058Z,6.22
2023-02-04T01:26:11.119Z,5.97
2023-02-04T01:28:42.321Z,6.25
2023-02-04T01:31:17.038Z,5.63
2023-02-04T01:33:52.529Z,5.95
2023-02-04T01:36:21.868Z,5.93
2023-02-04T01:38:51.455Z,5.70
2023-02-04T01:41:26.358Z,5.68
2023-02-04T01:43:57.632Z,5.28
2023-02-04T01:46:27.317Z,5.75
2023-02-04T01:48:56.619Z,5.55
2023-02-04T01:54:13.842Z,5.40
2023-02-04T01:56:51.176Z,6.07
2023-02-04T01:59:27.776Z,5.53
2023-02-04T02:01:56.999Z,5.43
2023-02-04T02:04:33.287Z,5.47
2023-02-04T02:07:09.483Z,6.15
2023-02-04T02:09:38.717Z,5.70
2023-02-04T02:12:09.591Z,5.40
2023-02-04T02:14:45.778Z,5.68
2023-02-04T02:17:19.899Z,6.23
2023-02-04T02:19:49.323Z,5.35
2023-02-04T02:22:25.612Z,5.88
2023-02-04T02:25:02.299Z,5.80
2023-02-04T02:27:32.157Z,6.05
2023-02-04T02:30:01.673Z,5.80
2023-02-04T02:32:32.950Z,7.03
2023-02-04T02:35:02.195Z,6.03
2023-02-04T02:37:34.717Z,6.13
2023-02-04T02:40:12.783Z,6.15
2023-02-04T02:42:44.579Z,5.88
2023-02-04T02:45:25.222Z,5.70
2023-02-04T02:47:54.914Z,6.35
2023-02-04T02:50:27.785Z,6.82
2023-02-04T02:53:04.237Z,6.30
2023-02-04T02:55:35.927Z,6.45
2023-02-04T02:58:07.285Z,6.40
2023-02-04T03:00:36.437Z,6.78
2023-02-04T03:03:15.551Z,6.93
2023-02-04T03:05:48.444Z,6.63
2023-02-04T03:08:19.095Z,6.07
2023-02-04T03:10:50.734Z,6.68
2023-02-04T03:13:20.994Z,6.20
2023-02-04T03:15:51.593Z,6.22
2023-02-04T03:18:22.595Z,6.95
2023-02-04T03:20:53.239Z,6.73
2023-02-04T03:23:22.886Z,6.20
2023-02-04T03:25:54.192Z,6.28
2023-02-04T03:28:23.353Z,6.78
2023-02-04T03:33:35.622Z,6.50
2023-02-04T03:36:04.860Z,6.35
2023-02-04T03:38:34.349Z,6.25
2023-02-04T03:41:11.570Z,6.65
2023-02-04T03:43:40.818Z,6.70
2023-02-04T03:46:10.583Z,6.03
2023-02-04T03:48:39.828Z,6.90
2023-02-04T03:51:18.802Z,6.88
2023-02-04T03:53:48.046Z,6.75
2023-02-04T03:56:22.217Z,7.88
2023-02-04T03:58:51.590Z,8.20
2023-02-04T04:01:20.703Z,7.18
2023-02-04T04:06:24.897Z,6.95
2023-02-04T04:08:53.923Z,6.68
2023-02-04T04:11:31.116Z,7.78
2023-02-04T04:14:00.921Z,7.68
2023-02-04T04:16:30.041Z,6.70
2023-02-04T04:18:59.626Z,6.18
2023-02-04T04:21:28.801Z,7.43
2023-02-04T04:24:09.818Z,6.90
2023-02-04T04:26:41.222Z,6.57
2023-02-04T04:29:10.389Z,6.75
2023-02-04T04:31:39.648Z,6.47
2023-02-04T04:34:08.837Z,7.18
2023-02-04T04:36:37.922Z,6.22
2023-02-04T04:39:07.093Z,6.88
2023-02-04T04:41:36.130Z,6.88
2023-02-04T04:44:09.707Z,7.68
2023-02-04T04:46:40.243Z,7.20
2023-02-04T04:49:09.914Z,6.97
2023-02-04T04:51:39.000Z,6.70
2023-02-04T04:54:08.267Z,6.60
2023-02-04T04:56:43.391Z,6.57
2023-02-04T04:59:14.558Z,6.35
2023-02-04T05:01:44.280Z,5.35
2023-02-04T05:04:13.687Z,5.47
2023-02-04T05:06:42.779Z,5.20
2023-02-04T05:09:12.009Z,4.97
2023-02-04T05:11:41.208Z,4.30
2023-02-04T05:14:10.412Z,5.15
2023-02-04T05:16:41.394Z,4.88
2023-02-04T05:19:10.597Z,5.35
2023-02-04T05:21:39.710Z,5.20
2023-02-04T05:26:44.043Z,5.32
2023-02-04T05:29:13.039Z,5.65
2023-02-04T05:31:44.474Z,5.80
2023-02-04T05:34:13.808Z,5.45
2023-02-04T05:36:42.957Z,6.22
2023-02-04T05:39:12.155Z,7.03
2023-02-04T05:41:41.381Z,5.90
2023-02-04T05:44:11.132Z,5.60
2023-02-04T05:46:40.569Z,5.65
2023-02-04T05:49:11.621Z,6.13
2023-02-04T05:51:45.985Z,6.53
2023-02-04T05:54:20.370Z,5.93
2023-02-04T05:56:56.355Z,5.75
2023-02-04T05:59:25.505Z,5.20
2023-02-04T06:01:54.517Z,5.38
2023-02-04T06:04:30.779Z,5.55
2023-02-04T06:07:00.394Z,6.00
2023-02-04T06:09:29.545Z,6.28
2023-02-04T06:11:58.755Z,6.47
2023-02-04T06:14:27.824Z,6.40
2023-02-04T06:16:57.114Z,6.65
2023-02-04T06:19:26.403Z,6.38
2023-02-04T06:21:57.460Z,6.57
2023-02-04T06:24:26.839Z,6.15
2023-02-04T06:26:58.074Z,6.20
2023-02-04T06:29:32.287Z,9.85
2023-02-04T06:32:01.537Z,10.73
2023-02-04T06:34:35.798Z,10.25
2023-02-04T06:37:06.890Z,9.50
2023-02-04T06:39:36.226Z,9.32
2023-02-04T06:42:06.066Z,8.30
2023-02-04T06:44:35.512Z,8.05
2023-02-04T06:47:09.880Z,9.00
2023-02-04T06:49:39.371Z,10.13
2023-02-04T06:52:10.608Z,9.55
2023-02-04T06:54:40.192Z,11.20
2023-02-04T06:57:09.285Z,10.60
2023-02-04T06:59:40.130Z,10.88
2023-02-04T07:02:11.051Z,10.43
2023-02-04T07:04:41.629Z,9.75
2023-02-04T07:07:12.928Z,8.80
2023-02-04T07:09:42.232Z,8.07
2023-02-04T07:12:11.340Z,9.38
2023-02-04T07:14:40.565Z,9.40
2023-02-04T07:17:09.722Z,10.13
2023-02-04T07:19:39.136Z,10.32
2023-02-04T07:22:08.304Z,12.68
2023-02-04T07:24:39.713Z,13.68
2023-02-04T07:27:08.986Z,15.27
2023-02-04T07:29:37.986Z,13.88
2023-02-04T07:32:07.504Z,12.48
2023-02-04T07:34:36.783Z,13.73
2023-02-04T07:37:06.017Z,14.27
2023-02-04T07:39:35.106Z,12.65
2023-02-04T07:42:06.213Z,11.85
2023-02-04T07:44:45.106Z,11.80
2023-02-04T07:47:14.756Z,12.52
2023-02-04T07:49:44.404Z,11.52
2023-02-04T07:52:14.049Z,10.48
2023-02-04T07:54:43.244Z,10.10
2023-02-04T07:57:14.251Z,9.88
2023-02-04T07:59:43.426Z,8.90
2023-02-04T08:02:20.354Z,8.20
2023-02-04T08:04:49.950Z,8.20
2023-02-04T08:07:19.108Z,7.50
2023-02-04T08:09:48.516Z,7.80
2023-02-04T08:12:19.648Z,7.82
2023-02-04T08:14:48.884Z,8.85
2023-02-04T08:17:17.993Z,9.35
2023-02-04T08:19:47.119Z,10.52
2023-02-04T08:22:16.359Z,10.95
2023-02-04T08:24:45.542Z,9.88
2023-02-04T08:27:14.704Z,8.93
2023-02-04T08:29:51.184Z,6.32
2023-02-04T08:32:26.574Z,6.68
2023-02-04T08:35:06.592Z,5.57
2023-02-04T08:37:36.199Z,7.07
2023-02-04T08:40:05.894Z,8.55
2023-02-04T08:42:35.313Z,9.45
2023-02-04T08:45:07.025Z,8.75
2023-02-04T08:47:38.983Z,10.38
2023-02-04T08:50:09.514Z,10.15
2023-02-04T08:52:38.719Z,11.55
2023-02-04T08:55:15.550Z,11.30
2023-02-04T08:57:44.699Z,12.07
2023-02-04T09:00:18.356Z,13.90
2023-02-04T09:02:57.653Z,17.30
2023-02-04T09:05:26.954Z,20.67
2023-02-04T09:07:56.544Z,19.65
2023-02-04T09:10:25.723Z,21.55
2023-02-04T09:12:55.707Z,20.58
2023-02-04T09:15:27.585Z,16.60
2023-02-04T09:18:11.133Z,19.40
2023-02-04T09:20:40.428Z,18.73
2023-02-04T09:23:11.616Z,20.67
2023-02-04T09:25:41.073Z,19.70
2023-02-04T09:28:12.154Z,17.90
2023-02-04T09:30:45.808Z,19.88
2023-02-04T09:33:17.399Z,18.25
2023-02-04T09:35:51.491Z,22.10
2023-02-04T09:38:21.760Z,20.38
2023-02-04T09:40:56.557Z,20.30
2023-02-04T09:43:33.635Z,23.45
2023-02-04T09:46:05.415Z,19.65
2023-02-04T09:51:07.745Z,20.42
2023-02-04T09:53:47.325Z,18.88
2023-02-04T09:56:16.868Z,12.82
2023-02-04T09:58:46.372Z,12.65
2023-02-04T10:01:20.447Z,10.75
2023-02-04T10:03:51.833Z,8.63
2023-02-04T10:06:23.127Z,9.48
2023-02-04T10:08:53.980Z,7.35
2023-02-04T10:11:29.570Z,9.88
2023-02-04T10:13:58.921Z,10.60
2023-02-04T10:16:33.517Z,9.60
2023-02-04T10:19:09.532Z,10.55
2023-02-04T10:21:45.926Z,10.60
2023-02-04T10:24:18.101Z,10.10
2023-02-04T11:29:38.358Z,9.45
2023-02-04T11:32:14.846Z,9.35
2023-02-04T11:34:51.115Z,10.00
2023-02-04T11:37:39.519Z,9.48
2023-02-04T11:40:25.249Z,9.20
2023-02-04T11:43:03.256Z,9.18
2023-02-04T11:45:46.564Z,9.15
2023-02-04T11:48:19.761Z,7.40
2023-02-04T11:50:57.574Z,8.75
2023-02-04T11:53:30.695Z,8.40
2023-02-04T11:56:00.543Z,8.07
2023-02-04T11:58:31.937Z,7.93
2023-02-04T12:01:03.183Z,9.73
2023-02-04T12:03:34.583Z,8.95
2023-02-04T12:06:04.573Z,10.48
2023-02-04T12:08:36.059Z,10.23
2023-02-04T12:11:10.747Z,11.77
2023-02-04T12:13:49.125Z,9.52
2023-02-04T12:16:23.032Z,13.15
2023-02-04T12:18:52.868Z,11.88
2023-02-04T12:21:22.486Z,13.30
2023-02-04T12:23:57.517Z,13.18
2023-02-04T12:26:26.706Z,12.50
2023-02-04T12:28:57.003Z,12.00
2023-02-04T12:31:28.280Z,13.10
2023-02-04T12:33:57.934Z,13.88
2023-02-04T12:36:29.309Z,13.05
2023-02-04T12:38:59.503Z,15.02
2023-02-04T12:41:28.982Z,15.48
2023-02-04T12:43:58.099Z,15.20
2023-02-04T12:53:53.042Z,14.38
2023-02-04T12:56:23.790Z,15.48
2023-02-04T12:58:53.854Z,14.18
2023-02-04T13:01:22.937Z,16.33
2023-02-04T13:03:51.998Z,17.95
2023-02-04T13:06:21.290Z,16.90
2023-02-04T13:08:52.436Z,15.07
2023-02-04T13:11:26.731Z,17.33
2023-02-04T13:13:55.839Z,16.08
2023-02-04T13:16:25.826Z,16.88
2023-02-04T13:18:54.908Z,15.15
2023-02-04T13:21:28.352Z,18.25
2023-02-04T13:23:59.667Z,17.45
2023-02-04T13:26:29.160Z,14.82
2023-02-04T13:28:58.169Z,15.23
2023-02-04T13:31:27.585Z,16.00
2023-02-04T13:33:56.681Z,14.40
2023-02-04T13:36:27.366Z,14.23
2023-02-04T13:38:59.831Z,15.38
2023-02-04T13:41:35.699Z,17.90
2023-02-04T13:44:10.076Z,16.55
2023-02-04T13:46:39.312Z,14.88
2023-02-04T13:49:10.107Z,19.63
2023-02-04T13:51:39.461Z,17.55
2023-02-04T13:54:10.859Z,19.30
2023-02-04T13:56:40.721Z,18.38
2023-02-04T13:59:10.025Z,18.02
2023-02-04T14:01:39.391Z,16.02
2023-02-04T14:04:08.544Z,17.05
2023-02-04T14:06:43.067Z,18.33
2023-02-04T14:09:14.613Z,17.13
2023-02-04T14:11:44.228Z,21.23
2023-02-04T14:14:13.359Z,21.35
2023-02-04T14:16:42.839Z,21.83
2023-02-04T14:19:23.807Z,23.20
2023-02-04T14:21:53.694Z,22.25
2023-02-04T14:24:25.290Z,20.67
2023-02-04T14:26:55.769Z,18.75
2023-02-04T14:29:24.856Z,20.65
2023-02-04T14:31:54.028Z,20.88
2023-02-04T14:34:23.072Z,21.13
2023-02-04T14:39:33.842Z,20.45
2023-02-04T14:42:04.875Z,19.73
2023-02-04T14:44:34.043Z,19.60
2023-02-04T14:47:03.111Z,19.75
2023-02-04T14:49:36.843Z,18.73
2023-02-04T14:52:06.844Z,19.67
2023-02-04T14:54:38.165Z,18.02
2023-02-04T14:57:10.850Z,17.08
2023-02-04T14:59:40.083Z,19.98
2023-02-04T15:02:09.264Z,18.70
2023-02-04T15:04:43.592Z,17.73
2023-02-04T15:07:26.688Z,18.58
2023-02-04T15:10:02.961Z,18.98
2023-02-04T15:12:33.108Z,16.63
2023-02-04T15:15:02.253Z,14.88
2023-02-04T15:17:36.629Z,18.02
2023-02-04T15:20:08.144Z,16.38
2023-02-04T15:22:39.610Z,15.38
2023-02-04T15:25:11.878Z,17.70
2023-02-04T15:27:47.071Z,13.55
2023-02-04T15:30:16.414Z,18.38
2023-02-04T15:32:47.162Z,15.27
2023-02-04T15:35:19.154Z,13.60
2023-02-04T15:38:14.289Z,14.38
2023-02-04T15:40:45.499Z,17.33
2023-02-04T15:43:14.634Z,13.43
2023-02-04T15:45:43.967Z,14.40
2023-02-04T15:48:19.279Z,15.93
2023-02-04T15:50:48.411Z,16.48
2023-02-04T15:53:17.967Z,19.50
2023-02-04T15:55:54.285Z,18.05
2023-02-04T15:58:23.543Z,16.75
2023-02-04T16:00:52.736Z,20.13
2023-02-04T16:03:27.033Z,16.98
2023-02-04T16:05:57.086Z,14.23
2023-02-04T16:08:31.423Z,14.13
2023-02-04T16:11:02.437Z,19.08
2023-02-04T16:13:31.712Z,16.02
2023-02-04T16:16:00.863Z,18.85
2023-02-04T16:18:33.841Z,15.63
2023-02-04T16:21:02.943Z,18.17
2023-02-04T16:26:18.786Z,16.98
2023-02-04T16:28:48.335Z,18.38
2023-02-04T16:31:17.766Z,18.30
2023-02-04T16:33:46.992Z,15.88
2023-02-04T16:36:18.258Z,19.20
2023-02-04T16:38:47.974Z,17.10
2023-02-04T16:41:21.325Z,17.10
2023-02-04T16:43:50.719Z,17.42
2023-02-04T16:46:20.021Z,16.15
2023-02-04T16:48:49.490Z,17.92
2023-02-04T16:51:20.005Z,14.40
2023-02-04T16:53:50.017Z,17.17
2023-02-04T16:56:21.165Z,15.85
2023-02-04T16:58:50.354Z,14.77
2023-02-04T17:01:19.567Z,13.98
2023-02-04T17:03:48.773Z,15.00
2023-02-04T17:06:18.521Z,17.35
2023-02-04T17:08:47.744Z,18.48
2023-02-04T17:11:31.983Z,17.88
2023-02-04T17:14:05.572Z,10.00
2023-02-04T17:16:35.122Z,18.13
2023-02-04T17:19:05.065Z,13.75
2023-02-04T17:21:37.606Z,13.18
2023-02-04T17:24:07.409Z,16.80
2023-02-04T17:26:39.583Z,15.52
2023-02-04T17:29:21.497Z,12.65
2023-02-04T17:31:52.371Z,15.52
2023-02-04T17:34:21.773Z,16.47
2023-02-04T17:36:51.074Z,17.75
2023-02-04T17:39:20.300Z,11.70
2023-02-04T17:41:49.376Z,16.65
2023-02-04T17:44:23.988Z,16.88
2023-02-04T17:46:54.156Z,13.32
2023-02-04T17:49:23.483Z,13.57
2023-02-04T17:51:52.714Z,15.40
2023-02-04T17:54:21.984Z,13.57
2023-02-04T17:56:52.518Z,14.15
2023-02-04T17:59:23.838Z,16.45
2023-02-04T18:01:53.295Z,11.40
2023-02-04T18:04:22.661Z,12.43
2023-02-04T18:06:58.977Z,13.73
2023-02-04T18:09:28.899Z,13.95
2023-02-04T18:12:14.783Z,15.80
2023-02-04T18:14:51.807Z,14.60
2023-02-04T18:17:21.219Z,17.17
2023-02-04T18:19:51.659Z,16.77
2023-02-04T18:22:25.602Z,16.73
2023-02-04T18:24:57.388Z,15.40
2023-02-04T18:27:33.070Z,15.95
2023-02-04T18:30:04.219Z,16.45
2023-02-04T18:32:38.998Z,16.05
2023-02-04T18:35:36.358Z,14.15
2023-02-04T18:40:46.840Z,18.00
2023-02-04T18:43:29.996Z,14.25
2023-02-04T18:46:24.515Z,18.30
2023-02-04T18:52:17.324Z,16.30
2023-02-04T18:54:57.630Z,15.85
2023-02-04T19:00:32.330Z,18.02
2023-02-04T19:03:21.793Z,20.33
2023-02-04T19:05:51.505Z,14.75
2023-02-04T19:08:26.757Z,15.25
2023-02-04T19:10:57.750Z,16.40
2023-02-04T19:13:29.083Z,14.97
2023-02-04T19:16:02.728Z,14.60
2023-02-04T19:18:41.473Z,17.27
2023-02-04T19:21:24.887Z,12.15
2023-02-04T19:23:58.193Z,18.00
2023-02-04T19:26:34.145Z,13.93
2023-02-04T19:29:03.481Z,18.13
2023-02-04T19:31:35.571Z,17.42
2023-02-04T19:34:22.978Z,16.02
2023-02-04T19:36:52.871Z,17.23
2023-02-04T19:39:32.331Z,15.90
2023-02-04T19:42:02.861Z,15.75
2023-02-04T19:44:39.542Z,18.52
2023-02-04T19:47:25.570Z,13.70
2023-02-04T19:50:03.432Z,13.95
2023-02-04T19:52:38.307Z,14.30
2023-02-04T19:55:37.174Z,19.52
2023-02-04T19:58:18.070Z,22.17
2023-02-04T20:00:52.692Z,15.38
2023-02-04T20:03:30.863Z,14.73
2023-02-04T20:06:22.108Z,15.77
2023-02-04T20:08:57.247Z,19.25
2023-02-04T20:11:44.869Z,15.80
2023-02-04T20:14:51.609Z,16.13
2023-02-04T20:17:35.965Z,13.52
2023-02-04T20:20:28.914Z,15.65
2023-02-04T20:23:01.838Z,14.85
2023-02-04T20:25:39.816Z,15.45
2023-02-04T20:28:40.319Z,16.50
2023-02-04T20:31:28.256Z,14.98
2023-02-04T20:33:59.587Z,15.52
2023-02-04T20:36:44.162Z,15.27
2023-02-04T20:39:36.764Z,14.35
2023-02-04T20:42:33.644Z,13.20
2023-02-04T20:45:34.314Z,19.08
2023-02-04T20:48:28.257Z,12.98
2023-02-04T20:51:00.926Z,11.25
2023-02-04T20:53:32.052Z,13.10
2023-02-04T20:56:17.628Z,12.80
2023-02-04T20:58:48.047Z,15.73
2023-02-04T21:01:24.369Z,10.85
2023-02-04T21:03:53.733Z,13.63
2023-02-04T21:06:29.374Z,11.95
2023-02-04T21:09:00.016Z,11.43
2023-02-04T21:11:31.444Z,12.77
2023-02-04T21:14:05.729Z,11.43
2023-02-04T21:16:35.227Z,15.05
2023-02-04T21:19:06.246Z,17.10
2023-02-04T21:21:35.989Z,17.25
2023-02-04T21:24:05.261Z,9.98
2023-02-04T21:26:38.108Z,10.10
2023-02-04T21:29:07.942Z,12.50
2023-02-04T21:31:37.510Z,12.07
2023-02-04T21:34:06.836Z,12.27
2023-02-04T21:36:36.188Z,11.98
2023-02-04T21:39:16.675Z,11.13
2023-02-04T21:42:08.231Z,11.70
2023-02-04T21:44:47.512Z,17.33
2023-02-04T21:47:17.269Z,17.90
2023-02-04T21:49:52.102Z,13.63
2023-02-04T21:52:21.380Z,14.05
2023-02-04T21:54:50.511Z,13.98
2023-02-04T21:57:21.579Z,12.55
2023-02-04T21:59:50.800Z,14.13
2023-02-04T22:02:19.879Z,12.80
2023-02-04T22:04:51.469Z,14.40
2023-02-04T22:07:21.283Z,18.77
2023-02-04T22:09:50.468Z,14.52
2023-02-04T22:12:27.345Z,14.57
2023-02-04T22:15:04.279Z,12.98
2023-02-04T22:20:09.537Z,13.80
2023-02-04T22:22:38.542Z,16.10
2023-02-04T22:25:08.388Z,17.85
2023-02-04T22:27:40.733Z,15.65
2023-02-04T22:30:20.163Z,15.85
2023-02-04T22:32:49.400Z,17.27
2023-02-04T22:35:19.313Z,19.55
2023-02-04T22:37:49.531Z,13.90
2023-02-04T22:40:18.933Z,18.25
2023-02-04T22:43:00.162Z,14.50
2023-02-04T22:45:34.566Z,18.30
2023-02-04T22:48:03.990Z,14.02
2023-02-04T22:50:33.209Z,19.35
2023-02-04T22:53:08.415Z,13.50
2023-02-04T22:55:37.447Z,19.33
2023-02-04T22:58:08.829Z,16.38
2023-02-04T23:00:38.085Z,10.07
2023-02-04T23:03:07.670Z,11.95
2023-02-04T23:05:37.225Z,13.68
2023-02-04T23:08:06.775Z,9.90
2023-02-04T23:10:38.096Z,9.00
2023-02-04T23:13:10.314Z,15.38
2023-02-04T23:15:40.460Z,12.15
2023-02-04T23:18:09.578Z,17.27
2023-02-04T23:20:41.291Z,16.70
2023-02-04T23:25:51.532Z,9.65
2023-02-04T23:28:22.916Z,13.85
2023-02-04T23:30:58.211Z,12.68
2023-02-04T23:33:27.632Z,8.43
2023-02-04T23:35:56.844Z,9.85
2023-02-04T23:38:26.204Z,11.82
2023-02-04T23:40:56.697Z,10.93
2023-02-04T23:43:28.153Z,11.57
2023-02-04T23:45:59.581Z,11.43
2023-02-04T23:48:29.077Z,12.15
2023-02-04T23:50:58.836Z,7.53
2023-02-04T23:53:27.924Z,9.93
2023-02-04T23:55:57.016Z,10.23
2023-02-04T23:58:28.405Z,14.70
